createdAt,value
2018-10-09T00:01:04.123Z,10.00
2018-10-09T00:03:32.732Z,9.99
2018-10-09T00:06:01.816Z,10.04
2018-10-09T00:08:30.627Z,10.06
2018-10-09T00:10:59.261Z,10.10
2018-10-09T00:13:27.968Z,10.12
2018-10-09T00:15:56.617Z,10.08
2018-10-09T00:18:25.222Z,10.01
2018-10-09T00:20:53.824Z,10.03
2018-10-09T00:23:22.471Z,10.05
2018-10-09T00:25:51.111Z,10.06
2018-10-09T00:28:19.738Z,10.08
2018-10-09T00:30:48.260Z,10.12
2018-10-09T00:33:16.978Z,10.11
2018-10-09T00:35:45.533Z,10.04
2018-10-09T00:38:14.265Z,9.97
2018-10-09T00:40:42.920Z,9.96
2018-10-09T00:43:11.542Z,9.95
2018-10-09T00:45:40.187Z,10.03
2018-10-09T00:48:08.808Z,10.00
2018-10-09T00:50:37.471Z,9.96
2018-10-09T00:53:06.497Z,9.94
2018-10-09T00:55:35.253Z,9.97
2018-10-09T00:58:03.813Z,9.99
2018-10-09T01:00:32.584Z,9.96
2018-10-09T01:03:02.039Z,10.00
2018-10-09T01:05:30.585Z,10.00
2018-10-09T01:07:59.273Z,9.97
2018-10-09T01:10:27.860Z,9.98
2018-10-09T01:12:56.461Z,9.97
2018-10-09T01:15:25.060Z,9.97
2018-10-09T01:17:53.623Z,10.00
2018-10-09T01:20:31.752Z,9.94
2018-10-09T01:23:01.889Z,9.87
2018-10-09T01:25:33.754Z,9.88
2018-10-09T01:28:03.427Z,9.89
2018-10-09T01:30:34.555Z,9.85
2018-10-09T01:33:04.559Z,9.86
2018-10-09T01:35:33.264Z,9.83
2018-10-09T01:38:02.588Z,9.84
2018-10-09T01:40:31.131Z,9.85
2018-10-09T01:42:59.750Z,9.86
2018-10-09T01:45:28.411Z,9.85
2018-10-09T01:47:57.160Z,9.84
2018-10-09T01:50:25.746Z,9.81
2018-10-09T01:52:54.494Z,9.80
2018-10-09T01:55:23.079Z,9.79
2018-10-09T01:57:51.862Z,9.76
2018-10-09T02:00:21.373Z,9.75
2018-10-09T02:02:49.961Z,9.72
2018-10-09T02:05:18.607Z,9.69
2018-10-09T02:07:47.231Z,9.70
2018-10-09T02:10:15.802Z,9.71
2018-10-09T02:12:44.352Z,9.68
2018-10-09T02:15:12.971Z,9.67
2018-10-09T02:17:41.702Z,9.65
2018-10-09T02:20:10.274Z,9.65
2018-10-09T02:22:38.818Z,9.69
2018-10-09T02:25:07.529Z,9.69
2018-10-09T02:27:36.092Z,9.69
2018-10-09T02:30:05.378Z,9.67
2018-10-09T02:32:34.293Z,9.69
2018-10-09T02:35:03.594Z,9.68
2018-10-09T02:37:32.152Z,9.66
2018-10-09T02:40:00.832Z,9.65
2018-10-09T02:42:29.449Z,9.60
2018-10-09T02:44:58.052Z,9.61
2018-10-09T02:47:26.840Z,9.61
2018-10-09T02:49:55.675Z,9.62
2018-10-09T02:52:24.433Z,9.59
2018-10-09T02:54:53.161Z,9.59
2018-10-09T02:57:21.863Z,9.57
2018-10-09T02:59:50.544Z,9.53
2018-10-09T03:02:19.156Z,9.57
2018-10-09T03:04:47.891Z,9.52
2018-10-09T03:07:16.611Z,9.51
2018-10-09T03:09:45.273Z,9.53
2018-10-09T03:12:14.168Z,9.52
2018-10-09T03:14:42.940Z,9.51
2018-10-09T03:17:11.647Z,9.50
2018-10-09T03:19:40.267Z,9.54
2018-10-09T03:22:09.127Z,9.53
2018-10-09T03:24:37.787Z,9.50
2018-10-09T03:27:06.666Z,9.45
2018-10-09T03:29:35.361Z,9.53
2018-10-09T03:32:04.030Z,9.51
2018-10-09T03:34:32.714Z,9.52
2018-10-09T03:37:01.638Z,9.50
2018-10-09T03:39:30.249Z,9.49
2018-10-09T03:41:58.906Z,9.46
2018-10-09T03:44:27.553Z,9.43
2018-10-09T03:46:56.275Z,9.44
2018-10-09T03:49:24.972Z,9.43
2018-10-09T03:51:53.645Z,9.47
2018-10-09T03:54:22.209Z,9.47
2018-10-09T03:56:50.751Z,9.45
2018-10-09T03:59:19.314Z,9.45
2018-10-09T04:01:47.909Z,9.44
2018-10-09T04:04:16.470Z,9.44
2018-10-09T04:06:45.111Z,9.39
2018-10-09T04:09:14.847Z,9.35
2018-10-09T04:11:44.154Z,9.40
2018-10-09T04:14:12.845Z,9.40
2018-10-09T04:16:41.504Z,9.38
2018-10-09T04:19:10.288Z,9.38
2018-10-09T04:21:38.836Z,9.40
2018-10-09T04:24:07.409Z,9.39
2018-10-09T04:26:36.004Z,9.40
2018-10-09T04:29:04.657Z,9.41
2018-10-09T04:31:34.131Z,9.40
2018-10-09T04:34:03.567Z,9.37
2018-10-09T04:36:32.188Z,9.34
2018-10-09T04:39:00.951Z,9.27
2018-10-09T04:41:29.517Z,9.33
2018-10-09T04:43:58.192Z,9.32
2018-10-09T04:46:26.869Z,9.24
2018-10-09T04:48:55.579Z,9.25
2018-10-09T04:51:24.269Z,9.21
2018-10-09T04:53:52.927Z,9.20
2018-10-09T04:56:21.678Z,9.16
2018-10-09T04:58:50.321Z,9.18
2018-10-09T05:01:18.974Z,9.20
2018-10-09T05:03:47.701Z,9.24
2018-10-09T05:06:16.342Z,9.28
2018-10-09T05:08:45.148Z,9.31
2018-10-09T05:11:13.741Z,9.33
2018-10-09T05:13:42.509Z,9.38
2018-10-09T05:16:11.336Z,9.37
2018-10-09T05:18:40.052Z,9.39
2018-10-09T05:21:08.731Z,9.43
2018-10-09T05:23:37.800Z,9.42
2018-10-09T05:26:06.448Z,9.46
2018-10-09T05:28:35.072Z,9.49
2018-10-09T05:31:04.338Z,9.49
2018-10-09T05:33:32.945Z,9.44
2018-10-09T05:36:02.910Z,9.43
2018-10-09T05:38:31.785Z,9.45
2018-10-09T05:41:00.437Z,9.46
2018-10-09T05:43:29.042Z,9.42
2018-10-09T05:45:57.708Z,9.46
2018-10-09T05:48:26.355Z,9.50
2018-10-09T05:50:55.037Z,9.48
2018-10-09T05:53:23.787Z,9.46
2018-10-09T05:55:52.388Z,9.52
2018-10-09T05:58:21.030Z,9.50
2018-10-09T06:00:49.725Z,9.45
2018-10-09T06:03:18.236Z,9.38
2018-10-09T06:05:46.895Z,9.37
2018-10-09T06:08:16.379Z,9.46
2018-10-09T06:10:45.132Z,9.55
2018-10-09T06:13:13.906Z,9.58
2018-10-09T06:15:42.689Z,9.50
2018-10-09T06:18:11.102Z,9.44
2018-10-09T06:20:39.927Z,9.52
2018-10-09T06:23:08.636Z,9.57
2018-10-09T06:25:37.329Z,9.62
2018-10-09T06:28:06.968Z,9.65
2018-10-09T06:30:36.080Z,9.69
2018-10-09T06:33:05.245Z,9.79
2018-10-09T06:35:34.363Z,9.94
2018-10-09T06:38:03.944Z,10.02
2018-10-09T06:40:32.548Z,10.11
2018-10-09T06:43:01.607Z,10.19
2018-10-09T06:45:30.293Z,10.27
2018-10-09T06:47:58.938Z,10.34
2018-10-09T06:50:27.653Z,10.39
2018-10-09T06:52:56.486Z,10.48
2018-10-09T06:55:25.369Z,10.52
2018-10-09T06:57:54.054Z,10.54
2018-10-09T07:00:22.819Z,10.50
2018-10-09T07:02:51.738Z,10.56
2018-10-09T07:05:20.397Z,10.62
2018-10-09T07:07:49.216Z,10.65
2018-10-09T07:10:19.613Z,10.73
2018-10-09T07:12:48.385Z,10.83
2018-10-09T07:15:17.052Z,10.91
2018-10-09T07:17:45.744Z,10.96
2018-10-09T07:20:14.547Z,11.01
2018-10-09T07:22:43.277Z,11.05
2018-10-09T07:25:11.920Z,11.09
2018-10-09T07:27:40.928Z,11.16
2018-10-09T07:30:11.298Z,11.20
2018-10-09T07:32:40.135Z,11.24
2018-10-09T07:35:09.939Z,11.31
2018-10-09T07:37:38.796Z,11.38
2018-10-09T07:40:07.790Z,11.38
2018-10-09T07:42:36.572Z,11.30
2018-10-09T07:45:05.268Z,11.35
2018-10-09T07:47:34.351Z,11.45
2018-10-09T07:50:03.771Z,11.55
2018-10-09T07:52:32.641Z,11.66
2018-10-09T07:55:02.292Z,11.76
2018-10-09T07:57:31.251Z,11.81
2018-10-09T08:00:00.182Z,11.91
2018-10-09T08:02:29.023Z,11.98
2018-10-09T08:04:58.133Z,12.06
2018-10-09T08:07:26.845Z,12.12
2018-10-09T08:09:55.512Z,12.15
2018-10-09T08:12:24.075Z,12.19
2018-10-09T08:14:52.687Z,12.24
2018-10-09T08:17:21.391Z,12.25
2018-10-09T08:19:50.035Z,12.28
2018-10-09T08:22:18.835Z,12.32
2018-10-09T08:24:47.889Z,12.33
2018-10-09T08:27:16.696Z,12.38
2018-10-09T08:29:45.695Z,12.42
2018-10-09T08:32:14.520Z,12.50
2018-10-09T08:34:43.537Z,12.58
2018-10-09T08:37:12.392Z,12.65
2018-10-09T08:39:41.326Z,12.75
2018-10-09T08:42:10.361Z,12.82
2018-10-09T08:44:39.036Z,12.91
2018-10-09T08:47:07.828Z,12.98
2018-10-09T08:49:37.424Z,13.05
2018-10-09T08:52:06.543Z,13.09
2018-10-09T08:54:35.227Z,13.10
2018-10-09T08:57:04.191Z,13.12
2018-10-09T08:59:33.377Z,13.16
2018-10-09T09:02:02.823Z,13.18
2018-10-09T09:04:32.332Z,13.27
2018-10-09T09:07:01.020Z,13.36
2018-10-09T09:09:29.725Z,13.44
2018-10-09T09:11:58.453Z,13.51
2018-10-09T09:14:27.123Z,13.59
2018-10-09T09:16:56.125Z,13.67
2018-10-09T09:19:24.961Z,13.75
2018-10-09T09:21:53.853Z,13.83
2018-10-09T09:24:23.004Z,13.91
2018-10-09T09:26:52.022Z,13.98
2018-10-09T09:29:20.842Z,14.06
2018-10-09T09:31:50.112Z,14.14
2018-10-09T09:34:19.018Z,14.19
2018-10-09T09:36:47.702Z,14.30
2018-10-09T09:39:16.488Z,14.38
2018-10-09T09:41:45.393Z,14.43
2018-10-09T09:44:14.353Z,14.50
2018-10-09T09:46:43.033Z,14.61
2018-10-09T09:49:12.221Z,14.73
2018-10-09T09:51:41.371Z,14.87
2018-10-09T09:54:10.095Z,15.03
2018-10-09T09:56:38.900Z,15.14
2018-10-09T09:59:07.820Z,15.20
2018-10-09T10:01:43.606Z,15.31
2018-10-09T10:04:13.252Z,15.41
2018-10-09T10:06:42.731Z,15.50
2018-10-09T10:09:12.144Z,15.59
2018-10-09T10:11:41.405Z,15.68
2018-10-09T10:14:10.391Z,15.79
2018-10-09T10:16:39.082Z,15.89
2018-10-09T10:19:08.018Z,15.99
2018-10-09T10:21:36.595Z,16.06
2018-10-09T10:24:05.360Z,16.09
2018-10-09T10:26:34.033Z,16.10
2018-10-09T10:29:03.555Z,16.12
2018-10-09T10:31:32.287Z,16.14
2018-10-09T10:34:02.707Z,16.14
2018-10-09T10:36:31.682Z,16.16
2018-10-09T10:39:00.414Z,16.19
2018-10-09T10:41:29.089Z,16.30
2018-10-09T10:43:57.796Z,16.39
2018-10-09T10:46:32.238Z,16.53
2018-10-09T10:49:05.783Z,16.67
2018-10-09T10:51:34.932Z,16.81
2018-10-09T10:54:05.252Z,16.93
2018-10-09T10:56:34.870Z,17.00
2018-10-09T10:59:05.219Z,17.08
2018-10-09T11:01:34.598Z,17.19
2018-10-09T11:04:04.139Z,17.24
2018-10-09T11:06:32.932Z,17.30
2018-10-09T11:09:02.310Z,17.35
2018-10-09T11:11:31.060Z,17.41
2018-10-09T11:13:59.760Z,17.41
2018-10-09T11:16:28.512Z,17.38
2018-10-09T11:18:57.185Z,17.37
2018-10-09T11:21:26.006Z,17.44
2018-10-09T11:23:54.735Z,17.49
2018-10-09T11:26:23.523Z,17.56
2018-10-09T11:28:52.232Z,17.67
2018-10-09T11:31:21.118Z,17.72
2018-10-09T11:33:49.667Z,17.62
2018-10-09T11:36:18.467Z,17.52
2018-10-09T11:38:47.152Z,17.43
2018-10-09T11:41:16.441Z,17.43
2018-10-09T11:43:45.452Z,17.55
2018-10-09T11:46:13.972Z,17.68
2018-10-09T11:48:42.664Z,17.81
2018-10-09T11:51:11.631Z,17.93
2018-10-09T11:53:40.395Z,18.07
2018-10-09T11:56:09.036Z,18.12
2018-10-09T11:58:37.874Z,18.23
2018-10-09T12:01:08.296Z,18.36
2018-10-09T12:03:37.044Z,18.47
2018-10-09T12:06:06.039Z,18.58
2018-10-09T12:08:34.739Z,18.66
2018-10-09T12:11:03.544Z,18.79
2018-10-09T12:13:32.291Z,18.87
2018-10-09T12:16:01.041Z,18.91
2018-10-09T12:18:29.872Z,18.94
2018-10-09T12:20:58.650Z,18.97
2018-10-09T12:23:27.354Z,19.00
2018-10-09T12:25:56.054Z,18.99
2018-10-09T12:28:24.755Z,18.91
2018-10-09T12:30:53.979Z,18.83
2018-10-09T12:33:22.782Z,18.79
2018-10-09T12:35:51.983Z,18.80
2018-10-09T12:38:20.640Z,18.83
2018-10-09T12:40:49.963Z,18.94
2018-10-09T12:43:18.842Z,19.10
2018-10-09T12:45:47.688Z,19.27
2018-10-09T12:48:16.933Z,19.41
2018-10-09T12:50:45.758Z,19.57
2018-10-09T12:53:15.331Z,19.68
2018-10-09T12:55:44.368Z,19.79
2018-10-09T12:58:13.050Z,19.89
2018-10-09T13:00:41.734Z,19.93
2018-10-09T13:03:10.651Z,20.01
2018-10-09T13:05:39.337Z,20.09
2018-10-09T13:08:08.055Z,20.09
2018-10-09T13:10:36.725Z,20.13
2018-10-09T13:13:05.453Z,20.14
2018-10-09T13:15:34.031Z,20.11
2018-10-09T13:18:02.864Z,20.00
2018-10-09T13:20:31.616Z,19.88
2018-10-09T13:23:00.384Z,19.76
2018-10-09T13:25:28.927Z,19.63
2018-10-09T13:27:58.136Z,19.51
2018-10-09T13:30:26.712Z,19.42
2018-10-09T13:32:55.302Z,19.36
2018-10-09T13:35:23.983Z,19.31
2018-10-09T13:37:53.209Z,19.28
2018-10-09T13:40:21.850Z,19.20
2018-10-09T13:42:50.681Z,19.13
2018-10-09T13:45:21.194Z,19.05
2018-10-09T13:47:49.897Z,18.97
2018-10-09T13:50:18.600Z,18.96
2018-10-09T13:52:47.898Z,18.91
2018-10-09T13:55:16.879Z,18.89
2018-10-09T13:57:45.915Z,18.86
2018-10-09T14:00:14.742Z,18.80
2018-10-09T14:02:43.244Z,18.79
2018-10-09T14:05:13.429Z,18.77
2018-10-09T14:07:42.086Z,18.77
2018-10-09T14:10:11.016Z,18.79
2018-10-09T14:12:39.568Z,18.76
2018-10-09T14:15:08.389Z,18.71
2018-10-09T14:17:40.284Z,18.71
2018-10-09T14:20:09.612Z,18.76
2018-10-09T14:22:38.460Z,18.75
2018-10-09T14:25:08.151Z,18.70
2018-10-09T14:27:37.197Z,18.67
2018-10-09T14:30:06.298Z,18.67
2018-10-09T14:32:35.361Z,18.64
2018-10-09T14:35:04.966Z,18.64
2018-10-09T14:37:33.681Z,18.64
2018-10-09T14:40:02.703Z,18.62
2018-10-09T14:42:31.549Z,18.63
2018-10-09T14:45:00.611Z,18.60
2018-10-09T14:47:29.387Z,18.58
2018-10-09T14:50:00.870Z,18.57
2018-10-09T14:52:29.890Z,18.58
2018-10-09T14:54:58.574Z,18.59
2018-10-09T14:57:27.387Z,18.58
2018-10-09T14:59:56.081Z,18.57
2018-10-09T15:02:25.168Z,18.60
2018-10-09T15:04:54.430Z,18.63
2018-10-09T15:07:23.885Z,18.63
2018-10-09T15:09:52.460Z,18.61
2018-10-09T15:12:21.148Z,18.54
2018-10-09T15:14:49.944Z,18.49
2018-10-09T15:17:18.847Z,18.50
2018-10-09T15:19:48.782Z,18.47
2018-10-09T15:22:18.192Z,18.43
2018-10-09T15:24:46.916Z,18.38
2018-10-09T15:27:16.319Z,18.37
2018-10-09T15:29:45.498Z,18.35
2018-10-09T15:32:14.203Z,18.32
2018-10-09T15:34:44.017Z,18.28
2018-10-09T15:37:12.732Z,18.23
2018-10-09T15:39:41.548Z,18.17
2018-10-09T15:42:10.296Z,18.13
2018-10-09T15:44:39.050Z,18.08
2018-10-09T15:47:08.375Z,18.06
2018-10-09T15:49:37.385Z,18.05
2018-10-09T15:52:06.614Z,18.03
2018-10-09T15:54:35.323Z,18.01
2018-10-09T15:57:05.213Z,17.97
2018-10-09T15:59:34.447Z,17.95
2018-10-09T16:02:03.725Z,17.94
2018-10-09T16:04:32.671Z,17.89
2018-10-09T16:07:02.011Z,17.83
2018-10-09T16:09:30.766Z,17.80
2018-10-09T16:11:59.555Z,17.75
2018-10-09T16:14:28.452Z,17.69
2018-10-09T16:16:57.333Z,17.65
2018-10-09T16:19:26.019Z,17.59
2018-10-09T16:21:55.801Z,17.53
2018-10-09T16:24:24.628Z,17.46
2018-10-09T16:26:53.454Z,17.40
2018-10-09T16:29:22.344Z,17.33
2018-10-09T16:31:51.084Z,17.27
2018-10-09T16:34:19.875Z,17.19
2018-10-09T16:36:48.669Z,17.14
2018-10-09T16:39:18.112Z,17.07
2018-10-09T16:41:47.560Z,17.01
2018-10-09T16:44:16.424Z,16.93
2018-10-09T16:46:45.307Z,16.87
2018-10-09T16:49:14.483Z,16.83
2018-10-09T16:51:43.440Z,16.77
2018-10-09T16:54:15.245Z,16.73
2018-10-09T16:56:44.087Z,16.69
2018-10-09T16:59:13.373Z,16.64
2018-10-09T17:01:42.497Z,16.58
2018-10-09T17:04:11.368Z,16.52
2018-10-09T17:06:41.078Z,16.48
2018-10-09T17:09:11.154Z,16.42
2018-10-09T17:11:41.382Z,16.36
2018-10-09T17:14:11.175Z,16.31
2018-10-09T17:16:40.463Z,16.28
2018-10-09T17:19:09.704Z,16.22
2018-10-09T17:21:39.914Z,16.15
2018-10-09T17:24:09.349Z,16.13
2018-10-09T17:26:38.249Z,16.10
2018-10-09T17:29:07.810Z,16.09
2018-10-09T17:31:36.635Z,16.05
2018-10-09T17:34:05.401Z,16.02
2018-10-09T17:36:34.327Z,15.98
2018-10-09T17:39:05.664Z,15.93
2018-10-09T17:41:42.621Z,15.88
2018-10-09T17:44:13.491Z,15.85
2018-10-09T17:46:53.456Z,15.79
2018-10-09T17:49:29.997Z,15.74
2018-10-09T17:51:59.845Z,15.72
2018-10-09T17:54:28.737Z,15.69
2018-10-09T17:56:57.614Z,15.66
2018-10-09T17:59:26.886Z,15.63
2018-10-09T18:01:57.238Z,15.60
2018-10-09T18:04:26.185Z,15.58
2018-10-09T18:06:57.913Z,15.53
2018-10-09T18:09:30.018Z,15.53
2018-10-09T18:11:58.681Z,15.49
2018-10-09T18:14:28.290Z,15.46
2018-10-09T18:16:57.901Z,15.45
2018-10-09T18:19:26.684Z,15.42
2018-10-09T18:21:55.304Z,15.39
2018-10-09T18:24:30.013Z,15.35
2018-10-09T18:26:59.804Z,15.32
2018-10-09T18:29:28.538Z,15.27
2018-10-09T18:31:57.325Z,15.23
2018-10-09T18:34:25.978Z,15.20
2018-10-09T18:36:55.302Z,15.17
2018-10-09T18:39:24.272Z,15.16
2018-10-09T18:41:53.247Z,15.13
2018-10-09T18:44:21.835Z,15.13
2018-10-09T18:46:50.622Z,15.09
2018-10-09T18:49:19.298Z,15.06
2018-10-09T18:51:48.099Z,15.06
2018-10-09T18:54:16.871Z,15.05
2018-10-09T18:56:45.597Z,15.03
2018-10-09T18:59:14.777Z,14.99
2018-10-09T19:01:43.551Z,15.00
2018-10-09T19:04:12.556Z,14.99
2018-10-09T19:06:42.097Z,14.97
2018-10-09T19:09:13.824Z,14.93
2018-10-09T19:11:43.961Z,14.91
2018-10-09T19:14:13.016Z,14.88
2018-10-09T19:16:43.046Z,14.86
2018-10-09T19:19:12.229Z,14.86
2018-10-09T19:21:41.212Z,14.82
2018-10-09T19:24:10.656Z,14.82
2018-10-09T19:26:41.570Z,14.79
2018-10-09T19:29:10.617Z,14.77
2018-10-09T19:31:39.453Z,14.75
2018-10-09T19:34:08.923Z,14.73
2018-10-09T19:36:37.629Z,14.72
2018-10-09T19:39:09.574Z,14.71
2018-10-09T19:41:38.436Z,14.69
2018-10-09T19:44:07.291Z,14.64
2018-10-09T19:46:36.426Z,14.63
2018-10-09T19:49:06.139Z,14.64
2018-10-09T19:51:35.081Z,14.64
2018-10-09T19:54:05.341Z,14.63
2018-10-09T19:56:34.812Z,14.64
2018-10-09T19:59:03.763Z,14.61
2018-10-09T20:01:32.675Z,14.60
2018-10-09T20:04:02.381Z,14.60
2018-10-09T20:06:31.546Z,14.61
2018-10-09T20:09:00.910Z,14.62
2018-10-09T20:11:30.243Z,14.63
2018-10-09T20:13:59.153Z,14.66
2018-10-09T20:16:27.946Z,14.66
2018-10-09T20:18:57.558Z,14.66
2018-10-09T20:21:26.279Z,14.65
2018-10-09T20:23:55.205Z,14.66
2018-10-09T20:26:24.222Z,14.62
2018-10-09T20:28:52.943Z,14.62
2018-10-09T20:31:21.718Z,14.61
2018-10-09T20:33:50.440Z,14.60
2018-10-09T20:36:19.073Z,14.59
2018-10-09T20:38:48.271Z,14.57
2018-10-09T20:41:17.195Z,14.56
2018-10-09T20:43:47.472Z,14.56
2018-10-09T20:46:16.295Z,14.54
2018-10-09T20:48:45.131Z,14.51
2018-10-09T20:51:13.906Z,14.48
2018-10-09T20:53:42.724Z,14.46
2018-10-09T20:56:11.522Z,14.42
2018-10-09T20:58:40.535Z,14.38
2018-10-09T21:01:09.390Z,14.34
2018-10-09T21:03:41.187Z,14.31
2018-10-09T21:06:09.806Z,14.29
2018-10-09T21:08:38.503Z,14.27
2018-10-09T21:11:07.572Z,14.26
2018-10-09T21:13:36.341Z,14.25
2018-10-09T21:16:05.447Z,14.20
2018-10-09T21:18:37.844Z,14.17
2018-10-09T21:21:06.667Z,14.15
2018-10-09T21:23:35.907Z,14.12
2018-10-09T21:26:04.792Z,14.11
2018-10-09T21:28:33.737Z,14.12
2018-10-09T21:31:02.901Z,14.12
2018-10-09T21:33:31.926Z,14.09
2018-10-09T21:36:00.683Z,14.09
2018-10-09T21:38:29.541Z,14.07
2018-10-09T21:40:58.564Z,14.07
2018-10-09T21:43:27.358Z,14.06
2018-10-09T21:45:56.096Z,14.07
2018-10-09T21:48:24.803Z,14.04
2018-10-09T21:50:53.641Z,14.06
2018-10-09T21:53:22.513Z,14.05
2018-10-09T21:55:51.432Z,14.03
2018-10-09T21:58:24.227Z,14.03
2018-10-09T22:01:13.372Z,14.02
2018-10-09T22:03:42.857Z,13.98
2018-10-09T22:06:15.418Z,13.99
2018-10-09T22:08:52.360Z,13.97
2018-10-09T22:11:23.082Z,13.95
2018-10-09T22:13:53.314Z,13.92
2018-10-09T22:16:28.343Z,13.89
2018-10-09T22:18:56.933Z,13.86
2018-10-09T22:21:25.672Z,13.84
2018-10-09T22:23:54.565Z,13.81
2018-10-09T22:26:23.268Z,13.77
2018-10-09T22:28:52.112Z,13.76
2018-10-09T22:31:20.848Z,13.71
2018-10-09T22:33:49.834Z,13.66
2018-10-09T22:36:19.641Z,13.64
2018-10-09T22:38:49.000Z,13.62
2018-10-09T22:41:18.502Z,13.59
2018-10-09T22:43:47.206Z,13.58
2018-10-09T22:46:15.883Z,13.57
2018-10-09T22:48:44.652Z,13.55
2018-10-09T22:51:13.343Z,13.53
2018-10-09T22:53:42.089Z,13.53
2018-10-09T22:56:10.858Z,13.54
2018-10-09T22:58:40.527Z,13.53
2018-10-09T23:01:09.278Z,13.52
2018-10-09T23:03:38.774Z,13.52
2018-10-09T23:06:08.335Z,13.50
2018-10-09T23:08:37.792Z,13.48
2018-10-09T23:11:07.599Z,13.47
2018-10-09T23:13:36.455Z,13.47
2018-10-09T23:16:05.465Z,13.44
2018-10-09T23:18:34.669Z,13.44
2018-10-09T23:21:04.653Z,13.43
2018-10-09T23:23:33.459Z,13.43
2018-10-09T23:26:04.142Z,13.43
2018-10-09T23:28:33.083Z,13.44
2018-10-09T23:31:02.804Z,13.44
2018-10-09T23:33:31.426Z,13.45
2018-10-09T23:36:00.244Z,13.45
2018-10-09T23:38:29.101Z,13.43
2018-10-09T23:40:57.749Z,13.40
2018-10-09T23:43:26.673Z,13.39
2018-10-09T23:45:55.395Z,13.38
2018-10-09T23:48:24.234Z,13.35
2018-10-09T23:50:52.889Z,13.32
2018-10-09T23:53:21.846Z,13.29
2018-10-09T23:55:50.493Z,13.30
2018-10-09T23:58:19.352Z,13.31
